Time;durP1;ratioP1;P1;durP2;ratioP2;P2;SDS_P1;SDS_P2;PMS_P1;PMS_P2;Temp;Humidity;BMP_temperature;BMP_pressure;BME280_temperature;BME280_humidity;BME280_pressure;Samples;Min_cycle;Max_cycle;Signal;HPM_P1;HPM_P2
2022/07/04 00:00:54;;;;;;;;;;;19.50;93.40;;;;;;4362812;32;44192;-81
2022/07/04 00:03:22;;;;;;;;;;;19.50;93.30;;;;;;4362469;32;44018;-81
2022/07/04 00:05:49;;;;;;;;;;;19.50;93.30;;;;;;4376181;32;43942;-81
2022/07/04 00:08:16;;;;;;;;;;;19.50;93.40;;;;;;4376064;32;44207;-81
2022/07/04 00:10:43;;;;;;;;;;;19.50;93.20;;;;;;4375984;32;43486;-81
2022/07/04 00:13:10;;;;;;;;;;;19.40;93.30;;;;;;4376125;32;44219;-81
2022/07/04 00:15:37;;;;;;;;;;;19.40;93.30;;;;;;4374564;32;44882;-81
2022/07/04 00:18:07;;;;;;;;;;;19.40;93.20;;;;;;4375135;32;43445;-81
2022/07/04 00:20:36;;;;;;;;;;;19.40;93.30;;;;;;4362601;32;44790;-81
2022/07/04 00:23:03;;;;;;;;;;;19.40;93.30;;;;;;4374751;32;43932;-81
2022/07/04 00:25:30;;;;;;;;;;;19.30;93.40;;;;;;4375885;32;43343;-81
2022/07/04 00:27:57;;;;;;;;;;;19.30;93.30;;;;;;4361913;32;43469;-81
2022/07/04 00:30:24;;;;;;;;;;;19.30;93.30;;;;;;4374659;32;43392;-81
2022/07/04 00:32:52;;;;;;;;;;;19.30;93.40;;;;;;4375565;32;43274;-81
2022/07/04 00:35:19;;;;;;;;;;;19.30;93.40;;;;;;4375724;32;44240;-81
2022/07/04 00:37:46;;;;;;;;;;;19.30;93.20;;;;;;4374281;32;44207;-82
2022/07/04 00:40:13;;;;;;;;;;;19.30;93.20;;;;;;4362401;32;43479;-82
2022/07/04 00:42:40;;;;;;;;;;;19.20;93.30;;;;;;4375188;32;44221;-81
2022/07/04 00:45:07;;;;;;;;;;;19.20;93.40;;;;;;4375847;32;43521;-81
2022/07/04 00:47:34;;;;;;;;;;;19.20;93.30;;;;;;4375090;32;42484;-81
2022/07/04 00:50:04;;;;;;;;;;;19.20;93.30;;;;;;4375336;32;43052;-82
2022/07/04 00:52:32;;;;;;;;;;;19.20;93.30;;;;;;4375124;32;44922;-81
2022/07/04 00:55:01;;;;;;;;;;;19.10;93.40;;;;;;4375428;32;43216;-81
2022/07/04 00:57:29;;;;;;;;;;;19.10;93.40;;;;;;4361631;32;42594;-82
2022/07/04 00:59:56;;;;;;;;;;;19.10;93.40;;;;;;4375347;32;43362;-82
2022/07/04 01:02:23;;;;;;;;;;;19.10;93.40;;;;;;4374772;32;43494;-82
2022/07/04 01:04:50;;;;;;;;;;;19.10;93.40;;;;;;4374244;32;43509;-82
2022/07/04 01:07:18;;;;;;;;;;;19.10;93.40;;;;;;4373786;32;43508;-82
2022/07/04 01:09:46;;;;;;;;;;;19.10;93.80;;;;;;4360968;32;43480;-82
2022/07/04 01:12:24;;;;;;;;;;;19.00;93.40;;;;;;4375232;32;44612;-82
2022/07/04 01:14:53;;;;;;;;;;;19.00;93.40;;;;;;4375394;32;45239;-82
2022/07/04 01:17:20;;;;;;;;;;;19.00;93.30;;;;;;4361378;32;44083;-82
2022/07/04 01:19:47;;;;;;;;;;;19.00;93.40;;;;;;4375258;32;45915;-82
2022/07/04 01:22:15;;;;;;;;;;;19.00;93.40;;;;;;4361350;32;42640;-82
2022/07/04 01:24:42;;;;;;;;;;;19.00;93.40;;;;;;4361739;32;44849;-82
2022/07/04 01:27:09;;;;;;;;;;;19.00;93.50;;;;;;4375553;32;20098;-82
2022/07/04 01:29:37;;;;;;;;;;;19.00;93.40;;;;;;4374856;32;44396;-82
2022/07/04 01:32:07;;;;;;;;;;;19.00;93.40;;;;;;4361507;32;44129;-82
2022/07/04 01:34:34;;;;;;;;;;;18.90;93.50;;;;;;4375079;32;43341;-82
2022/07/04 01:37:10;;;;;;;;;;;18.90;93.40;;;;;;4375402;32;43307;-82
2022/07/04 01:39:37;;;;;;;;;;;18.90;93.40;;;;;;4361460;32;42769;-82
2022/07/04 01:42:04;;;;;;;;;;;18.90;93.50;;;;;;4361051;32;45821;-82
2022/07/04 01:44:31;;;;;;;;;;;18.90;93.50;;;;;;4361223;32;43407;-82
2022/07/04 01:46:58;;;;;;;;;;;18.90;93.50;;;;;;4374518;32;43924;-82
2022/07/04 01:49:26;;;;;;;;;;;18.90;93.50;;;;;;4374847;32;44691;-82
2022/07/04 01:51:55;;;;;;;;;;;18.90;93.50;;;;;;4373954;32;43888;-82
2022/07/04 01:54:24;;;;;;;;;;;18.90;93.50;;;;;;4361133;32;46142;-82
2022/07/04 01:56:52;;;;;;;;;;;18.90;93.50;;;;;;4361063;32;44089;-82
2022/07/04 02:01:29;;;;;;;;;;;18.80;93.40;;;;;;4361518;32;43870;-82
2022/07/04 02:02:07;;;;;;;;;;;18.80;93.50;;;;;;4374512;32;43948;-82
2022/07/04 02:04:34;;;;;;;;;;;18.80;93.40;;;;;;4361346;32;43185;-82
2022/07/04 02:07:01;;;;;;;;;;;18.80;93.40;;;;;;4360894;32;44365;-82
2022/07/04 02:09:30;;;;;;;;;;;18.80;93.50;;;;;;4374400;32;42806;-82
2022/07/04 02:14:44;;;;;;;;;;;18.80;93.50;;;;;;4377429;32;42219;-82
2022/07/04 02:17:11;;;;;;;;;;;18.80;93.50;;;;;;4376378;32;43436;-81
2022/07/04 02:19:38;;;;;;;;;;;18.70;93.40;;;;;;4363867;32;42728;-81
2022/07/04 02:22:05;;;;;;;;;;;18.70;93.40;;;;;;4377595;32;44269;-81
2022/07/04 02:24:33;;;;;;;;;;;18.70;93.50;;;;;;4377538;32;45417;-82
2022/07/04 02:27:00;;;;;;;;;;;18.70;93.40;;;;;;4363536;32;44112;-82
2022/07/04 02:29:29;;;;;;;;;;;18.60;93.50;;;;;;4377617;32;43841;-81
2022/07/04 02:31:56;;;;;;;;;;;18.60;93.50;;;;;;4377247;32;45505;-81
2022/07/04 02:34:26;;;;;;;;;;;18.60;93.50;;;;;;4377115;32;44219;-82
2022/07/04 02:36:53;;;;;;;;;;;18.60;93.50;;;;;;4364202;32;43891;-82
2022/07/04 02:39:20;;;;;;;;;;;18.60;93.50;;;;;;4377384;32;43568;-82
2022/07/04 02:41:47;;;;;;;;;;;18.60;93.50;;;;;;4376013;32;44247;-82
2022/07/04 02:44:20;;;;;;;;;;;18.50;93.50;;;;;;4364654;32;44302;-82
2022/07/04 02:46:47;;;;;;;;;;;18.50;93.50;;;;;;4363649;32;42778;-82
2022/07/04 02:49:17;;;;;;;;;;;18.50;93.40;;;;;;4377291;32;43203;-81
2022/07/04 02:51:47;;;;;;;;;;;18.50;93.50;;;;;;4363772;32;42800;-81
2022/07/04 02:54:15;;;;;;;;;;;18.50;93.50;;;;;;4375659;32;43337;-82
2022/07/04 02:56:42;;;;;;;;;;;18.40;93.40;;;;;;4363350;32;43490;-82
2022/07/04 02:59:09;;;;;;;;;;;18.40;93.60;;;;;;4364008;32;43949;-82
2022/07/04 03:01:36;;;;;;;;;;;18.40;93.60;;;;;;4363633;32;45694;-82
2022/07/04 03:04:04;;;;;;;;;;;18.40;93.50;;;;;;4376701;32;44446;-82
2022/07/04 03:06:31;;;;;;;;;;;18.40;93.50;;;;;;4363651;32;43890;-82
2022/07/04 03:09:01;;;;;;;;;;;18.40;93.20;;;;;;4376580;32;43946;-82
2022/07/04 03:11:28;;;;;;;;;;;18.30;93.50;;;;;;4363147;32;42878;-81
2022/07/04 03:13:55;;;;;;;;;;;18.40;93.50;;;;;;4376664;32;43209;-81
2022/07/04 03:16:24;;;;;;;;;;;18.30;93.50;;;;;;4376536;32;42870;-81
2022/07/04 03:18:52;;;;;;;;;;;18.30;93.80;;;;;;4376576;32;42697;-81
2022/07/04 03:21:19;;;;;;;;;;;18.40;93.60;;;;;;4376383;32;42331;-81
2022/07/04 03:23:58;;;;;;;;;;;18.30;93.50;;;;;;4375767;32;43515;-82
2022/07/04 03:26:26;;;;;;;;;;;18.30;93.60;;;;;;4377037;32;45672;-81
2022/07/04 03:28:53;;;;;;;;;;;18.20;93.40;;;;;;4376695;32;44179;-81
2022/07/04 03:31:20;;;;;;;;;;;18.20;93.40;;;;;;4376615;32;43470;-81
2022/07/04 03:33:47;;;;;;;;;;;18.20;93.70;;;;;;4375519;32;45792;-81
2022/07/04 03:36:15;;;;;;;;;;;18.20;93.60;;;;;;4376177;32;42383;-81
2022/07/04 03:38:42;;;;;;;;;;;18.20;93.60;;;;;;4362935;32;42737;-81
2022/07/04 03:41:10;;;;;;;;;;;18.20;93.70;;;;;;4363469;32;43908;-81
2022/07/04 03:43:37;;;;;;;;;;;18.20;93.70;;;;;;4362688;32;43758;-81
2022/07/04 03:46:04;;;;;;;;;;;18.20;93.70;;;;;;4376455;32;43289;-81
2022/07/04 03:48:31;;;;;;;;;;;18.10;93.80;;;;;;4375935;32;43955;-81
2022/07/04 03:50:58;;;;;;;;;;;18.10;93.80;;;;;;4376216;32;45048;-81
2022/07/04 03:53:26;;;;;;;;;;;18.10;93.80;;;;;;4362910;32;42491;-81
2022/07/04 03:55:53;;;;;;;;;;;18.10;93.80;;;;;;4362838;32;43761;-81
2022/07/04 03:58:20;;;;;;;;;;;18.10;93.80;;;;;;4376429;32;43211;-81
2022/07/04 04:00:47;;;;;;;;;;;18.10;93.90;;;;;;4362789;32;42507;-81
2022/07/04 04:06:00;;;;;;;;;;;18.10;93.90;;;;;;4375956;32;42511;-81
2022/07/04 04:08:27;;;;;;;;;;;18.10;93.80;;;;;;4375551;32;44339;-81
2022/07/04 04:10:54;;;;;;;;;;;18.10;93.90;;;;;;4376012;32;44286;-81
2022/07/04 04:13:21;;;;;;;;;;;18.00;93.90;;;;;;4363018;32;44231;-81
2022/07/04 04:15:48;;;;;;;;;;;18.00;93.90;;;;;;4375740;32;43474;-81
2022/07/04 04:18:15;;;;;;;;;;;18.00;93.90;;;;;;4362265;32;43420;-81
2022/07/04 04:20:42;;;;;;;;;;;18.00;93.90;;;;;;4375751;32;43878;-81
2022/07/04 04:23:09;;;;;;;;;;;18.00;94.00;;;;;;4376241;32;43859;-81
2022/07/04 04:25:36;;;;;;;;;;;18.00;94.00;;;;;;4374491;32;42918;-81
2022/07/04 04:28:03;;;;;;;;;;;18.00;94.00;;;;;;4362007;32;43922;-81
2022/07/04 04:30:30;;;;;;;;;;;18.00;94.00;;;;;;4362040;32;43599;-81
2022/07/04 04:32:58;;;;;;;;;;;18.00;94.00;;;;;;4375362;32;42529;-81
2022/07/04 04:35:25;;;;;;;;;;;18.00;94.10;;;;;;4374660;32;44101;-81
2022/07/04 04:37:52;;;;;;;;;;;18.00;94.10;;;;;;4374690;32;44227;-81
2022/07/04 04:40:19;;;;;;;;;;;18.00;94.00;;;;;;4374843;32;43321;-82
2022/07/04 04:42:46;;;;;;;;;;;18.00;94.10;;;;;;4361944;32;44693;-81
2022/07/04 04:45:13;;;;;;;;;;;18.00;94.30;;;;;;4375237;32;43187;-81
2022/07/04 04:47:42;;;;;;;;;;;17.90;94.30;;;;;;4375236;32;44178;-81
2022/07/04 04:50:14;;;;;;;;;;;17.90;94.40;;;;;;4361691;32;44250;-81
2022/07/04 04:52:41;;;;;;;;;;;17.90;94.40;;;;;;4362270;32;44212;-81
2022/07/04 04:55:09;;;;;;;;;;;17.90;94.40;;;;;;4375582;32;44062;-81
2022/07/04 04:57:36;;;;;;;;;;;17.90;94.40;;;;;;4374346;32;44051;-81
2022/07/04 05:00:06;;;;;;;;;;;17.90;94.40;;;;;;4362512;32;20000;-81
2022/07/04 05:02:33;;;;;;;;;;;17.90;94.60;;;;;;4361634;32;45715;-81
2022/07/04 05:05:00;;;;;;;;;;;17.90;94.60;;;;;;4375242;32;43307;-81
2022/07/04 05:07:28;;;;;;;;;;;17.90;94.60;;;;;;4375274;32;43856;-80
2022/07/04 05:09:58;;;;;;;;;;;17.90;94.80;;;;;;4374084;32;44327;-81
2022/07/04 05:12:26;;;;;;;;;;;17.90;95.00;;;;;;4375380;32;43231;-81
2022/07/04 05:14:54;;;;;;;;;;;17.90;95.00;;;;;;4375292;32;45706;-81
2022/07/04 05:17:21;;;;;;;;;;;17.90;95.00;;;;;;4374745;32;43920;-81
2022/07/04 05:19:48;;;;;;;;;;;17.90;95.00;;;;;;4361817;32;44085;-81
2022/07/04 05:22:16;;;;;;;;;;;17.90;95.20;;;;;;4374650;32;44250;-83
2022/07/04 05:24:43;;;;;;;;;;;17.90;95.10;;;;;;4374658;32;43286;-78
2022/07/04 05:27:11;;;;;;;;;;;17.90;95.20;;;;;;4375087;32;43466;-81
2022/07/04 05:29:38;;;;;;;;;;;17.90;95.30;;;;;;4374808;32;44050;-81
2022/07/04 05:32:05;;;;;;;;;;;17.90;95.50;;;;;;4374892;32;44862;-85
2022/07/04 05:34:33;;;;;;;;;;;17.80;95.40;;;;;;4361632;32;44167;-77
2022/07/04 05:37:00;;;;;;;;;;;17.80;95.30;;;;;;4361159;32;44049;-81
2022/07/04 05:39:29;;;;;;;;;;;17.80;95.50;;;;;;4374543;32;42487;-82
2022/07/04 05:41:56;;;;;;;;;;;17.80;95.40;;;;;;4361630;32;44535;-78
2022/07/04 05:44:23;;;;;;;;;;;17.80;95.40;;;;;;4361478;32;42126;-80
2022/07/04 05:46:50;;;;;;;;;;;17.80;95.70;;;;;;4360762;32;46237;-81
2022/07/04 05:49:17;;;;;;;;;;;17.80;95.60;;;;;;4361390;32;44211;-80
2022/07/04 05:51:44;;;;;;;;;;;17.80;95.60;;;;;;4374958;32;43832;-80
2022/07/04 05:54:11;;;;;;;;;;;17.80;95.70;;;;;;4373541;32;43929;-81
2022/07/04 05:56:39;;;;;;;;;;;17.80;95.70;;;;;;4373471;32;43439;-80
2022/07/04 05:59:06;;;;;;;;;;;17.80;95.80;;;;;;4361266;32;43490;-81
2022/07/04 06:01:33;;;;;;;;;;;17.80;95.60;;;;;;4374178;32;45555;-79
2022/07/04 06:04:00;;;;;;;;;;;17.80;95.70;;;;;;4373903;32;44175;-82
2022/07/04 06:06:28;;;;;;;;;;;17.80;95.80;;;;;;4374804;32;44218;-80
2022/07/04 06:08:57;;;;;;;;;;;17.80;96.00;;;;;;4360127;32;44316;-79
2022/07/04 06:11:24;;;;;;;;;;;17.80;95.90;;;;;;4361302;32;43391;-80
2022/07/04 06:13:51;;;;;;;;;;;17.80;96.00;;;;;;4374991;32;43469;-81
2022/07/04 06:16:19;;;;;;;;;;;17.80;96.00;;;;;;4361108;32;42743;-79
2022/07/04 06:18:46;;;;;;;;;;;17.90;96.00;;;;;;4374716;32;43995;-82
2022/07/04 06:21:13;;;;;;;;;;;17.80;95.90;;;;;;4373613;32;43535;-81
2022/07/04 06:23:40;;;;;;;;;;;17.90;96.10;;;;;;4374438;32;43544;-81
2022/07/04 06:26:07;;;;;;;;;;;17.80;96.10;;;;;;4361598;32;43194;-82
2022/07/04 06:28:35;;;;;;;;;;;17.90;96.20;;;;;;4374472;32;42674;-81
2022/07/04 06:31:17;;;;;;;;;;;17.90;96.30;;;;;;4373816;32;42448;-78
2022/07/04 06:36:30;;;;;;;;;;;17.90;96.20;;;;;;4374828;32;43905;-80
2022/07/04 06:38:57;;;;;;;;;;;17.90;96.30;;;;;;4360843;32;43195;-83
2022/07/04 06:41:25;;;;;;;;;;;17.90;96.10;;;;;;4374744;32;46112;-80
2022/07/04 06:43:52;;;;;;;;;;;17.90;96.10;;;;;;4373650;32;43366;-81
2022/07/04 06:46:19;;;;;;;;;;;18.00;96.10;;;;;;4360602;32;44105;-80
2022/07/04 06:48:46;;;;;;;;;;;17.90;96.10;;;;;;4360744;32;42997;-83
2022/07/04 06:51:14;;;;;;;;;;;18.00;96.10;;;;;;4373063;32;42886;-79
2022/07/04 06:53:41;;;;;;;;;;;18.00;96.10;;;;;;4360681;32;43751;-81
2022/07/04 06:56:08;;;;;;;;;;;18.00;95.90;;;;;;4374346;32;43253;-80
2022/07/04 06:58:36;;;;;;;;;;;18.00;95.90;;;;;;4362076;32;44290;-81
2022/07/04 07:01:03;;;;;;;;;;;18.00;95.90;;;;;;4363560;32;44356;-80
2022/07/04 07:03:30;;;;;;;;;;;18.00;95.90;;;;;;4376982;32;43499;-82
2022/07/04 07:05:57;;;;;;;;;;;18.00;95.90;;;;;;4377120;32;44107;-82
2022/07/04 07:08:27;;;;;;;;;;;18.10;96.00;;;;;;4376611;32;42955;-81
2022/07/04 07:10:55;;;;;;;;;;;18.10;95.90;;;;;;4363221;32;44187;-80
2022/07/04 07:13:22;;;;;;;;;;;18.10;96.00;;;;;;4363026;32;45964;-80
2022/07/04 07:15:49;;;;;;;;;;;18.10;96.00;;;;;;4363182;32;43197;-81
2022/07/04 07:18:16;;;;;;;;;;;18.10;96.00;;;;;;4376776;32;44222;-80
2022/07/04 07:20:46;;;;;;;;;;;18.10;96.00;;;;;;4376465;32;43843;-81
2022/07/04 07:23:13;;;;;;;;;;;18.10;96.00;;;;;;4363292;32;42813;-80
2022/07/04 07:25:40;;;;;;;;;;;18.10;96.00;;;;;;4376360;32;43475;-80
2022/07/04 07:28:07;;;;;;;;;;;18.10;96.00;;;;;;4376715;32;44171;-81
2022/07/04 07:30:34;;;;;;;;;;;18.20;96.00;;;;;;4362963;32;43471;-80
2022/07/04 07:33:01;;;;;;;;;;;18.20;96.10;;;;;;4375489;32;43458;-78
2022/07/04 07:35:29;;;;;;;;;;;18.20;96.00;;;;;;4376265;32;42787;-81
2022/07/04 07:37:58;;;;;;;;;;;18.20;96.00;;;;;;4363166;32;44362;-80
2022/07/04 07:40:25;;;;;;;;;;;18.20;95.90;;;;;;4363153;32;44111;-79
2022/07/04 07:42:54;;;;;;;;;;;18.20;95.80;;;;;;4375008;32;44571;-80
2022/07/04 07:45:21;;;;;;;;;;;18.20;95.90;;;;;;4376232;32;45065;-80
2022/07/04 07:47:48;;;;;;;;;;;18.20;96.00;;;;;;4376551;32;42673;-80
2022/07/04 07:50:15;;;;;;;;;;;18.20;96.10;;;;;;4376000;32;42728;-79
2022/07/04 07:52:42;;;;;;;;;;;18.20;95.70;;;;;;4376547;32;44010;-81
2022/07/04 07:55:09;;;;;;;;;;;18.30;95.80;;;;;;4376429;32;45969;-80
2022/07/04 07:57:39;;;;;;;;;;;18.20;95.90;;;;;;4362554;32;44176;-80
2022/07/04 08:00:14;;;;;;;;;;;18.20;95.80;;;;;;4376122;32;42919;-79
2022/07/04 08:05:47;;;;;;;;;;;18.30;95.70;;;;;;4375855;32;44082;-80
2022/07/04 08:08:14;;;;;;;;;;;18.30;95.90;;;;;;4375352;32;43208;-79
2022/07/04 08:10:41;;;;;;;;;;;18.30;95.90;;;;;;4375882;32;43553;-78
2022/07/04 08:13:09;;;;;;;;;;;18.30;95.80;;;;;;4375850;32;43853;-80
2022/07/04 08:15:37;;;;;;;;;;;18.30;95.90;;;;;;4362667;32;43269;-80
2022/07/04 08:18:04;;;;;;;;;;;18.30;95.80;;;;;;4362196;32;44193;-81
2022/07/04 08:20:31;;;;;;;;;;;18.30;95.70;;;;;;4362561;32;46146;-79
2022/07/04 08:23:18;;;;;;;;;;;18.30;95.70;;;;;;4364972;32;45800;-79
2022/07/04 08:25:45;;;;;;;;;;;18.40;95.80;;;;;;4362212;32;42813;-78
2022/07/04 08:28:12;;;;;;;;;;;18.40;95.70;;;;;;4362432;32;43294;-81
2022/07/04 08:30:39;;;;;;;;;;;18.40;95.60;;;;;;4375822;32;44222;-81
2022/07/04 08:33:06;;;;;;;;;;;18.40;95.60;;;;;;4363833;32;20412;-80
2022/07/04 08:35:34;;;;;;;;;;;18.40;95.70;;;;;;4361946;32;43281;-78
2022/07/04 08:38:01;;;;;;;;;;;18.40;95.30;;;;;;4362146;32;44220;-78
2022/07/04 08:40:29;;;;;;;;;;;18.40;95.30;;;;;;4374303;32;43412;-79
2022/07/04 08:42:56;;;;;;;;;;;18.40;95.20;;;;;;4362173;32;44878;-80
2022/07/04 08:45:27;;;;;;;;;;;18.40;95.10;;;;;;4375239;32;43475;-79
2022/07/04 08:48:00;;;;;;;;;;;18.40;95.00;;;;;;4375889;32;42849;-79
2022/07/04 08:50:35;;;;;;;;;;;18.40;95.00;;;;;;4361873;32;44613;-79
2022/07/04 08:53:09;;;;;;;;;;;18.40;95.10;;;;;;4375519;32;43581;-79
2022/07/04 08:58:25;;;;;;;;;;;18.40;95.20;;;;;;4375464;32;43589;-79
2022/07/04 09:00:54;;;;;;;;;;;18.40;95.20;;;;;;4374906;32;45820;-78
2022/07/04 09:03:22;;;;;;;;;;;18.40;95.10;;;;;;4375827;32;19993;-79
2022/07/04 09:05:50;;;;;;;;;;;18.40;94.90;;;;;;4374226;32;44220;-78
2022/07/04 09:08:17;;;;;;;;;;;18.40;95.00;;;;;;4375037;32;43123;-80
2022/07/04 09:10:46;;;;;;;;;;;18.40;94.90;;;;;;4375046;32;42319;-77
2022/07/04 09:13:14;;;;;;;;;;;18.40;94.80;;;;;;4361457;32;42560;-80
2022/07/04 09:15:42;;;;;;;;;;;18.50;95.20;;;;;;4375376;32;45546;-79
2022/07/04 09:18:24;;;;;;;;;;;18.40;94.80;;;;;;4374917;32;43315;-79
2022/07/04 09:20:55;;;;;;;;;;;18.50;94.80;;;;;;4375191;32;44305;-78
2022/07/04 09:23:32;;;;;;;;;;;18.50;95.00;;;;;;4373582;32;43265;-79
2022/07/04 09:26:09;;;;;;;;;;;18.50;94.90;;;;;;4374738;32;43472;-78
2022/07/04 09:28:36;;;;;;;;;;;18.50;94.80;;;;;;4361668;32;43490;-78
2022/07/04 09:31:33;;;;;;;;;;;18.50;94.70;;;;;;4361657;32;43947;-79
2022/07/04 09:34:03;;;;;;;;;;;18.50;94.60;;;;;;4366303;32;20398;-79
2022/07/04 09:36:31;;;;;;;;;;;18.50;94.70;;;;;;4374780;32;46004;-79
2022/07/04 09:39:14;;;;;;;;;;;18.50;94.80;;;;;;4361363;32;44527;-81
2022/07/04 09:41:49;;;;;;;;;;;18.50;94.80;;;;;;4375152;32;46028;-77
2022/07/04 09:44:17;;;;;;;;;;;18.60;94.90;;;;;;4375140;32;46141;-78
2022/07/04 09:46:44;;;;;;;;;;;18.60;94.70;;;;;;4375022;32;44069;-79
2022/07/04 09:49:11;;;;;;;;;;;18.60;94.40;;;;;;4374513;32;43045;-79
2022/07/04 09:51:42;;;;;;;;;;;18.60;94.60;;;;;;4361716;32;44196;-79
2022/07/04 09:54:12;;;;;;;;;;;18.60;94.30;;;;;;4361556;32;45216;-79
2022/07/04 09:56:40;;;;;;;;;;;18.60;94.50;;;;;;4361024;32;45372;-78
2022/07/04 09:59:07;;;;;;;;;;;18.60;94.50;;;;;;4374682;32;43930;-78
2022/07/04 10:01:35;;;;;;;;;;;18.60;94.30;;;;;;4361054;32;43241;-78
2022/07/04 10:04:06;;;;;;;;;;;18.60;94.40;;;;;;4375819;32;20133;-78
2022/07/04 10:06:33;;;;;;;;;;;18.60;94.60;;;;;;4361134;32;43295;-77
2022/07/04 10:09:20;;;;;;;;;;;18.70;94.20;;;;;;4374782;32;44047;-77
2022/07/04 10:11:48;;;;;;;;;;;18.60;94.10;;;;;;4361303;32;45514;-81
2022/07/04 10:14:16;;;;;;;;;;;18.70;94.10;;;;;;4373754;32;45052;-78
2022/07/04 10:16:43;;;;;;;;;;;18.70;94.20;;;;;;4374348;32;44055;-78
2022/07/04 10:19:12;;;;;;;;;;;18.70;94.10;;;;;;4360869;32;44324;-80
2022/07/04 10:21:39;;;;;;;;;;;18.70;93.70;;;;;;4374234;32;43955;-78
2022/07/04 10:24:08;;;;;;;;;;;18.70;93.70;;;;;;4374467;32;44185;-80
2022/07/04 10:26:35;;;;;;;;;;;18.70;93.90;;;;;;4374862;32;43199;-78
2022/07/04 10:29:02;;;;;;;;;;;18.80;94.10;;;;;;4374729;32;45047;-79
2022/07/04 10:31:30;;;;;;;;;;;18.80;94.00;;;;;;4374201;32;44887;-80
2022/07/04 10:33:58;;;;;;;;;;;18.80;94.10;;;;;;4375629;32;42660;-78
2022/07/04 10:36:30;;;;;;;;;;;18.80;94.40;;;;;;4376834;32;20015;-79
2022/07/04 10:38:58;;;;;;;;;;;18.80;94.00;;;;;;4364145;32;44634;-78
2022/07/04 10:41:26;;;;;;;;;;;18.80;94.00;;;;;;4376858;32;45152;-79
2022/07/04 10:43:56;;;;;;;;;;;18.90;94.10;;;;;;4377277;32;43489;-79
2022/07/04 10:46:28;;;;;;;;;;;18.90;94.10;;;;;;4363968;32;43882;-77
2022/07/04 10:48:58;;;;;;;;;;;18.90;94.10;;;;;;4363471;32;44152;-78
2022/07/04 10:51:41;;;;;;;;;;;18.90;93.80;;;;;;4376856;32;42904;-80
2022/07/04 10:54:28;;;;;;;;;;;18.90;93.60;;;;;;4377684;32;44029;-78
2022/07/04 10:56:57;;;;;;;;;;;19.00;93.90;;;;;;4364407;32;43267;-78
2022/07/04 10:59:28;;;;;;;;;;;19.00;93.60;;;;;;4376800;32;43415;-78
2022/07/04 11:02:08;;;;;;;;;;;19.00;93.70;;;;;;4375559;32;43146;-78
2022/07/04 11:04:53;;;;;;;;;;;19.00;93.90;;;;;;4365818;32;44597;-77
2022/07/04 11:07:30;;;;;;;;;;;19.00;93.60;;;;;;4363948;32;20001;-80
2022/07/04 11:10:21;;;;;;;;;;;19.10;93.60;;;;;;4363348;32;41930;-80
2022/07/04 11:12:57;;;;;;;;;;;19.10;93.70;;;;;;4377011;32;44229;-79
2022/07/04 11:15:24;;;;;;;;;;;19.10;93.60;;;;;;4363117;32;43223;-78
2022/07/04 11:17:52;;;;;;;;;;;19.10;93.30;;;;;;4376491;32;43704;-80
2022/07/04 11:20:19;;;;;;;;;;;19.10;93.20;;;;;;4376921;32;43266;-77
2022/07/04 11:22:46;;;;;;;;;;;19.10;93.10;;;;;;4376799;32;43472;-77
2022/07/04 11:25:14;;;;;;;;;;;19.20;92.90;;;;;;4376381;32;44167;-80
2022/07/04 11:27:41;;;;;;;;;;;19.20;92.70;;;;;;4376905;32;44710;-78
2022/07/04 11:30:09;;;;;;;;;;;19.20;93.20;;;;;;4376715;32;44205;-80
2022/07/04 11:32:42;;;;;;;;;;;19.20;93.20;;;;;;4363667;32;42713;-77
2022/07/04 11:35:09;;;;;;;;;;;19.30;93.40;;;;;;4362915;32;44514;-78
2022/07/04 11:37:36;;;;;;;;;;;19.30;93.30;;;;;;4377307;32;20012;-77
2022/07/04 11:45:52;;;;;;;;;;;19.30;93.20;;;;;;4375426;32;46127;-78
2022/07/04 11:48:22;;;;;;;;;;;19.40;93.00;;;;;;4376165;32;42617;-78
2022/07/04 11:50:49;;;;;;;;;;;19.30;93.10;;;;;;4376500;32;43113;-78
2022/07/04 11:53:17;;;;;;;;;;;19.40;93.10;;;;;;4375055;32;44713;-78
2022/07/04 11:55:57;;;;;;;;;;;19.40;93.10;;;;;;4363553;32;44089;-80
2022/07/04 11:58:24;;;;;;;;;;;19.40;93.10;;;;;;4362569;32;43491;-77
2022/07/04 12:00:52;;;;;;;;;;;19.50;92.90;;;;;;4375929;32;45197;-77
2022/07/04 12:03:19;;;;;;;;;;;19.50;93.00;;;;;;4376243;32;44148;-78
2022/07/04 12:05:46;;;;;;;;;;;19.50;93.20;;;;;;4376219;32;43816;-77
2022/07/04 12:08:13;;;;;;;;;;;19.50;93.20;;;;;;4376631;32;20015;-78
2022/07/04 12:10:56;;;;;;;;;;;19.50;92.90;;;;;;4364649;32;44261;-77
2022/07/04 12:13:24;;;;;;;;;;;19.50;92.90;;;;;;4375749;32;42520;-79
2022/07/04 12:15:56;;;;;;;;;;;19.50;93.00;;;;;;4375678;32;42435;-80
2022/07/04 12:18:28;;;;;;;;;;;19.50;92.80;;;;;;4375208;32;43482;-79
2022/07/04 12:21:09;;;;;;;;;;;19.60;92.80;;;;;;4362220;32;44263;-78
2022/07/04 12:23:39;;;;;;;;;;;19.60;92.80;;;;;;4362556;32;44149;-78
2022/07/04 12:26:27;;;;;;;;;;;19.60;92.60;;;;;;4364915;32;45292;-79
2022/07/04 12:28:56;;;;;;;;;;;19.60;92.90;;;;;;4362197;32;43501;-78
2022/07/04 12:31:39;;;;;;;;;;;19.60;92.60;;;;;;4362438;32;43176;-77
2022/07/04 12:34:19;;;;;;;;;;;19.70;92.80;;;;;;4362023;32;44547;-77
2022/07/04 12:36:53;;;;;;;;;;;19.70;92.90;;;;;;4374707;32;43775;-77
2022/07/04 12:39:30;;;;;;;;;;;19.70;93.00;;;;;;4363250;32;20000;-79
2022/07/04 12:42:08;;;;;;;;;;;19.70;93.10;;;;;;4375634;32;45981;-77
2022/07/04 12:44:36;;;;;;;;;;;19.70;92.80;;;;;;4375926;32;43483;-80
2022/07/04 12:47:04;;;;;;;;;;;19.70;92.70;;;;;;4375738;32;45687;-80
2022/07/04 12:49:44;;;;;;;;;;;19.80;92.70;;;;;;4374735;32;44469;-80
2022/07/04 12:52:13;;;;;;;;;;;19.80;92.60;;;;;;4362049;32;44312;-79
2022/07/04 12:54:41;;;;;;;;;;;19.80;92.90;;;;;;4375208;32;44220;-77
2022/07/04 12:57:09;;;;;;;;;;;19.70;92.70;;;;;;4375026;32;44211;-78
2022/07/04 12:59:39;;;;;;;;;;;19.80;92.70;;;;;;4375040;32;44896;-78
2022/07/04 13:02:07;;;;;;;;;;;19.80;92.90;;;;;;4374797;32;43442;-78
2022/07/04 13:04:35;;;;;;;;;;;19.80;92.70;;;;;;4362035;32;43598;-78
2022/07/04 13:07:15;;;;;;;;;;;19.80;92.80;;;;;;4361695;32;42657;-77
2022/07/04 13:09:42;;;;;;;;;;;19.80;92.80;;;;;;4362439;32;20005;-79
2022/07/04 13:12:25;;;;;;;;;;;19.90;92.80;;;;;;4375113;32;43478;-77
2022/07/04 13:14:53;;;;;;;;;;;19.80;92.40;;;;;;4361877;32;44053;-77
2022/07/04 13:17:21;;;;;;;;;;;19.90;92.50;;;;;;4361439;32;43431;-80
2022/07/04 13:19:48;;;;;;;;;;;19.90;92.40;;;;;;4361737;32;43478;-78
2022/07/04 13:22:15;;;;;;;;;;;19.90;92.40;;;;;;4374801;32;42655;-79
2022/07/04 13:24:42;;;;;;;;;;;19.90;92.40;;;;;;4374843;32;43582;-80
2022/07/04 13:27:09;;;;;;;;;;;19.90;92.20;;;;;;4362017;32;44142;-79
2022/07/04 13:29:36;;;;;;;;;;;19.90;92.20;;;;;;4374803;32;45342;-81
2022/07/04 13:32:04;;;;;;;;;;;20.00;92.20;;;;;;4374440;32;43991;-79
2022/07/04 13:34:38;;;;;;;;;;;20.00;92.20;;;;;;4374867;32;45047;-80
2022/07/04 13:37:05;;;;;;;;;;;20.00;92.30;;;;;;4374595;32;43486;-79
2022/07/04 13:39:32;;;;;;;;;;;20.10;92.10;;;;;;4374545;32;43821;-80
2022/07/04 13:42:56;;;;;;;;;;;20.10;92.00;;;;;;4374064;32;44214;-78
2022/07/04 13:45:04;;;;;;;;;;;20.10;91.90;;;;;;4375079;32;42371;-79
2022/07/04 13:47:31;;;;;;;;;;;20.10;91.90;;;;;;4361363;32;42603;-81
2022/07/04 13:49:58;;;;;;;;;;;20.10;91.60;;;;;;4361026;32;44828;-80
2022/07/04 13:52:26;;;;;;;;;;;20.10;91.70;;;;;;4374703;32;42971;-77
2022/07/04 13:54:53;;;;;;;;;;;20.20;92.00;;;;;;4373795;32;43299;-80
2022/07/04 13:57:20;;;;;;;;;;;20.10;91.60;;;;;;4374481;32;43823;-80
2022/07/04 13:59:47;;;;;;;;;;;20.10;91.50;;;;;;4361034;32;43474;-80
2022/07/04 14:02:14;;;;;;;;;;;20.10;91.50;;;;;;4374366;32;44047;-80
2022/07/04 14:04:42;;;;;;;;;;;20.20;91.60;;;;;;4373731;32;43202;-81
2022/07/04 14:07:09;;;;;;;;;;;20.20;91.50;;;;;;4361168;32;43278;-80
2022/07/04 14:09:44;;;;;;;;;;;20.20;91.30;;;;;;4364781;32;44587;-80
2022/07/04 14:12:12;;;;;;;;;;;20.20;91.20;;;;;;4377262;32;44809;-79
2022/07/04 14:14:39;;;;;;;;;;;20.20;91.50;;;;;;4363945;32;43482;-81
2022/07/04 14:17:06;;;;;;;;;;;20.20;91.50;;;;;;4377906;32;44442;-81
2022/07/04 14:19:53;;;;;;;;;;;20.20;91.70;;;;;;4366416;32;44801;-79
2022/07/04 14:22:20;;;;;;;;;;;20.20;92.10;;;;;;4363934;32;42580;-79
2022/07/04 14:24:47;;;;;;;;;;;20.30;91.90;;;;;;4377491;32;42488;-80
2022/07/04 14:27:14;;;;;;;;;;;20.30;91.80;;;;;;4377448;32;43362;-80
2022/07/04 14:29:42;;;;;;;;;;;20.30;91.70;;;;;;4377137;32;44182;-79
2022/07/04 14:32:10;;;;;;;;;;;20.30;91.70;;;;;;4377491;32;43316;-81
2022/07/04 14:34:40;;;;;;;;;;;20.40;91.60;;;;;;4377018;32;42583;-79
2022/07/04 14:37:07;;;;;;;;;;;20.40;91.70;;;;;;4377038;32;43004;-80
2022/07/04 14:39:34;;;;;;;;;;;20.40;91.60;;;;;;4364076;32;43246;-80
2022/07/04 14:42:01;;;;;;;;;;;20.40;91.50;;;;;;4377141;32;43307;-79
2022/07/04 14:44:28;;;;;;;;;;;20.40;91.20;;;;;;4376824;32;43043;-80
2022/07/04 14:46:58;;;;;;;;;;;20.40;91.30;;;;;;4375777;32;43002;-81